Time;durP1;ratioP1;P1;durP2;ratioP2;P2;SDS_P1;SDS_P2;PMS_P1;PMS_P2;Temp;Humidity;BMP_temperature;BMP_pressure;BME280_temperature;BME280_humidity;BME280_pressure;Samples;Min_cycle;Max_cycle;Signal;HPM_P1;HPM_P2
2023/12/20 00:01:32;;;;;;;12.00;1.92;;;;;;;6.61;100.00;101642.97;5075748;28;20024;-74
2023/12/20 00:03:57;;;;;;;12.77;2.00;;;;;;;6.62;100.00;101639.47;5075639;28;20078;-74
2023/12/20 00:06:23;;;;;;;13.65;2.00;;;;;;;6.63;100.00;101644.66;5075843;28;20044;-74
2023/12/20 00:08:48;;;;;;;7.82;2.05;;;;;;;6.64;100.00;101633.38;5075972;28;20105;-74
2023/12/20 00:11:14;;;;;;;13.25;2.88;;;;;;;6.61;100.00;101637.75;5074312;28;20033;-74
2023/12/20 00:13:39;;;;;;;9.88;1.52;;;;;;;6.64;100.00;101638.59;5075471;28;20062;-74
2023/12/20 00:16:04;;;;;;;9.43;1.75;;;;;;;6.67;100.00;101633.31;5073501;28;20049;-74
2023/12/20 00:18:30;;;;;;;16.92;2.17;;;;;;;6.64;100.00;101630.78;5074636;28;20042;-74
2023/12/20 00:20:55;;;;;;;9.60;2.30;;;;;;;6.67;100.00;101630.72;5075011;28;20056;-74
2023/12/20 00:23:21;;;;;;;3.75;2.08;;;;;;;6.70;100.00;101632.44;5074849;28;20035;-74
2023/12/20 00:25:46;;;;;;;10.55;2.10;;;;;;;6.66;100.00;101633.38;5074346;28;20028;-74
2023/12/20 00:28:11;;;;;;;13.85;2.45;;;;;;;6.69;100.00;101625.50;5075108;28;20323;-74
2023/12/20 00:30:37;;;;;;;13.88;2.40;;;;;;;6.71;100.00;101632.44;5074645;28;20407;-74
2023/12/20 00:33:02;;;;;;;20.02;3.30;;;;;;;6.64;100.00;101632.50;5075606;28;20078;-74
2023/12/20 00:35:27;;;;;;;12.02;1.92;;;;;;;6.63;100.00;101631.66;5075689;28;20074;-74
2023/12/20 00:37:53;;;;;;;12.95;2.50;;;;;;;6.64;100.00;101638.59;5075316;28;20196;-74
2023/12/20 00:40:18;;;;;;;11.93;2.30;;;;;;;6.68;100.00;101644.63;5074177;28;20387;-74
2023/12/20 00:42:44;;;;;;;11.05;2.63;;;;;;;6.67;100.00;101646.34;5075727;28;20047;-74
2023/12/20 00:45:09;;;;;;;12.07;2.25;;;;;;;6.68;100.00;101640.28;5075133;28;20051;-74
2023/12/20 00:47:34;;;;;;;19.20;2.78;;;;;;;6.69;100.00;101648.94;5075077;28;20375;-74
2023/12/20 00:50:00;;;;;;;20.38;2.97;;;;;;;6.62;100.00;101631.66;5075118;28;20032;-74
2023/12/20 00:52:25;;;;;;;18.38;4.07;;;;;;;6.60;100.00;101633.44;5075173;28;20235;-74
2023/12/20 00:54:51;;;;;;;12.85;2.47;;;;;;;6.64;100.00;101624.69;5075245;28;20036;-73
2023/12/20 00:57:17;;;;;;;15.27;2.45;;;;;;;6.65;100.00;101629.03;5075554;28;20050;-74
2023/12/20 00:59:42;;;;;;;19.27;3.75;;;;;;;6.68;100.00;101623.81;5074983;28;20056;-74
2023/12/20 01:02:09;;;;;;;17.10;3.83;;;;;;;6.67;100.00;101637.69;5074807;28;20396;-74
2023/12/20 01:04:34;;;;;;;12.35;2.33;;;;;;;6.62;100.00;101640.34;5073684;28;20041;-74
2023/12/20 01:06:59;;;;;;;26.00;2.75;;;;;;;6.63;100.00;101649.03;5075095;28;20146;-74
2023/12/20 01:09:26;;;;;;;11.18;2.30;;;;;;;6.64;100.00;101643.78;5074809;28;20036;-74
2023/12/20 01:11:52;;;;;;;17.05;2.85;;;;;;;6.67;100.00;101642.88;5074563;28;20033;-74
2023/12/20 01:14:17;;;;;;;15.57;3.00;;;;;;;6.67;100.00;101646.34;5074810;28;20334;-74
2023/12/20 01:16:43;;;;;;;14.77;2.78;;;;;;;6.68;100.00;101640.28;5074900;28;20095;-74
2023/12/20 01:19:08;;;;;;;14.90;2.72;;;;;;;6.70;100.00;101635.06;5074680;28;20378;-74
2023/12/20 01:21:33;;;;;;;11.10;2.30;;;;;;;6.75;100.00;101638.47;5074760;28;20099;-74
2023/12/20 01:23:58;;;;;;;15.82;2.45;;;;;;;6.73;100.00;101641.09;5074465;28;20239;-74
2023/12/20 01:26:24;;;;;;;15.60;2.47;;;;;;;6.72;100.00;101634.16;5074346;28;20374;-74
2023/12/20 01:28:49;;;;;;;16.00;3.00;;;;;;;6.67;100.00;101635.94;5074524;28;20313;-74
2023/12/20 01:31:14;;;;;;;13.88;3.05;;;;;;;6.71;100.00;101636.75;5074236;28;20032;-74
2023/12/20 01:33:40;;;;;;;19.20;2.90;;;;;;;6.72;100.00;101638.50;5074531;28;20028;-74
2023/12/20 01:36:05;;;;;;;14.23;2.78;;;;;;;6.75;100.00;101642.78;5074540;28;20058;-74
2023/12/20 01:38:31;;;;;;;26.90;2.92;;;;;;;6.70;100.00;101635.06;5074449;28;20029;-74
2023/12/20 01:40:56;;;;;;;11.40;2.55;;;;;;;6.72;100.00;101634.16;5074272;28;20333;-74
2023/12/20 01:43:21;;;;;;;17.00;3.20;;;;;;;6.73;100.00;101633.28;5074595;28;20092;-74
2023/12/20 01:45:47;;;;;;;14.70;3.03;;;;;;;6.73;100.00;101628.06;5074355;28;20298;-74
2023/12/20 01:48:15;;;;;;;22.63;3.05;;;;;;;6.72;100.00;101620.28;5074309;28;20032;-74
2023/12/20 01:50:43;;;;;;;11.98;2.38;;;;;;;6.71;100.00;101626.34;5074732;28;20032;-74
2023/12/20 01:53:09;;;;;;;14.70;2.65;;;;;;;6.71;100.00;101632.44;5074129;28;20047;-73
2023/12/20 01:55:38;;;;;;;16.05;2.78;;;;;;;6.68;100.00;101626.41;5074272;28;20043;-74
2023/12/20 01:58:05;;;;;;;18.98;2.40;;;;;;;6.72;100.00;101634.16;5073941;28;20043;-74
2023/12/20 02:00:31;;;;;;;26.08;3.10;;;;;;;6.71;100.00;101631.56;5073213;28;20531;-74
2023/12/20 02:03:00;;;;;;;16.30;2.47;;;;;;;6.72;100.00;101636.75;5073921;28;20083;-74
2023/12/20 02:05:27;;;;;;;19.73;2.75;;;;;;;6.73;100.00;101648.91;5074441;28;20086;-73
2023/12/20 02:07:53;;;;;;;8.05;2.35;;;;;;;6.70;100.00;101633.31;5074267;28;20036;-73
2023/12/20 02:10:18;;;;;;;16.70;2.63;;;;;;;6.72;100.00;101634.16;5074074;28;20324;-73
2023/12/20 02:12:44;;;;;;;19.02;2.65;;;;;;;6.74;100.00;101641.94;5074149;28;20081;-73
2023/12/20 02:15:09;;;;;;;15.23;2.60;;;;;;;6.73;100.00;101638.47;5073937;28;20197;-73
2023/12/20 02:17:35;;;;;;;16.98;2.65;;;;;;;6.73;100.00;101638.47;5073036;28;20078;-73
2023/12/20 02:20:00;;;;;;;21.15;2.90;;;;;;;6.73;100.00;101635.88;5073543;28;20387;-73
2023/12/20 02:22:26;;;;;;;12.43;3.03;;;;;;;6.73;100.00;101621.97;5071863;28;20036;-73
2023/12/20 02:24:51;;;;;;;21.95;2.78;;;;;;;6.69;100.00;101625.50;5073380;28;20325;-73
2023/12/20 02:27:19;;;;;;;22.15;3.03;;;;;;;6.72;100.00;101633.28;5073509;28;20052;-73
2023/12/20 02:29:47;;;;;;;9.37;2.33;;;;;;;6.70;100.00;101624.63;5073650;28;20347;-73
2023/12/20 02:32:12;;;;;;;20.33;2.42;;;;;;;6.69;100.00;101617.69;5073345;28;20286;-73
2023/12/20 02:34:38;;;;;;;11.75;2.30;;;;;;;6.65;100.00;101616.88;5073988;28;20041;-73
2023/12/20 02:37:03;;;;;;;15.90;3.08;;;;;;;6.68;100.00;101616.00;5073763;28;20035;-73
2023/12/20 02:39:28;;;;;;;16.48;3.00;;;;;;;6.67;100.00;101611.66;5073864;28;20350;-73
2023/12/20 02:41:54;;;;;;;21.85;2.55;;;;;;;6.59;100.00;101610.91;5073675;28;20048;-73
2023/12/20 02:44:19;;;;;;;14.88;2.30;;;;;;;6.60;100.00;101610.00;5073611;28;20340;-73
2023/12/20 02:46:45;;;;;;;20.13;2.70;;;;;;;6.61;100.00;101612.59;5073886;28;20032;-73
2023/12/20 02:49:10;;;;;;;17.10;2.38;;;;;;;6.63;100.00;101626.44;5073432;28;20099;-73
2023/12/20 02:51:38;;;;;;;33.63;3.25;;;;;;;6.65;100.00;101622.06;5073839;28;20379;-73
2023/12/20 02:54:04;;;;;;;12.07;2.70;;;;;;;6.68;100.00;101610.78;5073565;28;20020;-73
2023/12/20 02:56:29;;;;;;;18.75;2.22;;;;;;;6.67;100.00;101604.69;5073917;28;20028;-73
2023/12/20 02:58:54;;;;;;;22.00;3.03;;;;;;;6.68;100.00;101608.19;5073671;28;20048;-73
2023/12/20 03:01:20;;;;;;;19.92;3.40;;;;;;;6.67;100.00;101589.06;5073773;28;20036;-73
2023/12/20 03:03:45;;;;;;;18.42;2.63;;;;;;;6.67;100.00;101588.22;5074334;28;20036;-73
2023/12/20 03:06:10;;;;;;;21.10;2.95;;;;;;;6.67;100.00;101591.69;5073660;28;20063;-73
2023/12/20 03:08:36;;;;;;;14.38;3.15;;;;;;;6.65;100.00;101576.97;5073524;28;20241;-73
2023/12/20 03:11:01;;;;;;;15.07;2.70;;;;;;;6.62;100.00;101580.50;5074804;28;20336;-73
2023/12/20 03:13:26;;;;;;;10.98;1.98;;;;;;;6.65;100.00;101587.38;5077604;28;20407;-73
2023/12/20 03:15:52;;;;;;;22.17;2.83;;;;;;;6.62;100.00;101596.09;5076828;28;20040;-73
2023/12/20 03:18:18;;;;;;;21.30;3.35;;;;;;;6.62;100.00;101590.03;5077059;28;20368;-73
2023/12/20 03:20:43;;;;;;;24.88;2.88;;;;;;;6.63;100.00;101591.75;5077354;28;20220;-73
2023/12/20 03:23:09;;;;;;;13.82;2.47;;;;;;;6.61;100.00;101589.16;5076900;28;20322;-73
2023/12/20 03:25:34;;;;;;;17.08;2.55;;;;;;;6.64;100.00;101591.75;5077315;28;20055;-73
2023/12/20 03:28:00;;;;;;;20.40;2.80;;;;;;;6.62;100.00;101598.72;5077010;28;20059;-73
2023/12/20 03:30:25;;;;;;;13.68;2.78;;;;;;;6.61;100.00;101589.16;5076649;28;20306;-73
2023/12/20 03:32:51;;;;;;;19.50;3.33;;;;;;;6.64;100.00;101583.94;5056624;28;20351;-73
2023/12/20 03:35:16;;;;;;;14.75;2.70;;;;;;;6.60;100.00;101597.00;5056719;28;20032;-73
2023/12/20 03:37:41;;;;;;;19.75;3.75;;;;;;;6.60;100.00;101597.84;5056970;28;20025;-73
2023/12/20 03:40:07;;;;;;;22.10;3.05;;;;;;;6.56;100.00;101606.56;5056776;28;20055;-73
2023/12/20 03:42:32;;;;;;;15.38;2.55;;;;;;;6.58;100.00;101596.16;5057071;28;20074;-73
2023/12/20 03:44:58;;;;;;;25.50;3.45;;;;;;;6.55;100.00;101615.28;5056579;28;20025;-73
2023/12/20 03:47:23;;;;;;;16.67;2.85;;;;;;;6.56;100.00;101603.13;5056532;28;20036;-73
2023/12/20 03:49:48;;;;;;;20.33;3.65;;;;;;;6.53;100.00;101604.00;5056739;28;20045;-73
2023/12/20 03:52:14;;;;;;;16.67;2.60;;;;;;;6.54;100.00;101609.19;5056309;28;20037;-73
2023/12/20 03:54:41;;;;;;;14.75;2.60;;;;;;;6.54;100.00;101588.38;5055369;28;20025;-73
2023/12/20 03:57:06;;;;;;;16.27;2.30;;;;;;;6.54;100.00;101584.91;5056320;28;20068;-73
2023/12/20 03:59:36;;;;;;;15.52;2.55;;;;;;;6.58;100.00;101591.78;5056399;28;20340;-73
2023/12/20 04:02:02;;;;;;;13.85;2.88;;;;;;;6.54;100.00;101590.97;5055882;28;20352;-73
2023/12/20 04:04:27;;;;;;;12.65;2.50;;;;;;;6.58;100.00;101585.75;5056214;28;20288;-73
2023/12/20 04:06:52;;;;;;;14.70;3.03;;;;;;;6.56;100.00;101583.16;5056476;28;20039;-74
2023/12/20 04:09:18;;;;;;;20.80;3.50;;;;;;;6.61;100.00;101586.56;5056022;28;20384;-73
2023/12/20 04:11:43;;;;;;;17.20;2.70;;;;;;;6.64;100.00;101590.84;5054905;28;20231;-73
2023/12/20 04:14:08;;;;;;;20.33;3.47;;;;;;;6.61;100.00;101590.91;5055538;28;20336;-73
2023/12/20 04:16:34;;;;;;;18.85;2.70;;;;;;;6.63;100.00;101590.00;5056154;28;20037;-73
2023/12/20 04:19:00;;;;;;;21.80;3.13;;;;;;;6.61;100.00;101591.78;5055028;28;20036;-73
2023/12/20 04:21:26;;;;;;;19.42;3.08;;;;;;;6.57;100.00;101590.09;5055894;28;20029;-73
2023/12/20 04:23:51;;;;;;;23.48;3.50;;;;;;;6.59;100.00;101593.53;5054296;28;20048;-73
2023/12/20 04:26:17;;;;;;;16.95;2.85;;;;;;;6.58;100.00;101584.00;5055771;28;20033;-73
2023/12/20 04:28:42;;;;;;;15.55;2.67;;;;;;;6.57;100.00;101579.69;5055953;28;20024;-73
2023/12/20 04:31:08;;;;;;;18.02;2.53;;;;;;;6.60;100.00;101577.03;5055370;28;20037;-73
2023/12/20 04:33:33;;;;;;;14.32;2.40;;;;;;;6.53;100.00;101576.25;5055990;28;20542;-73
2023/12/20 04:35:59;;;;;;;20.90;3.17;;;;;;;6.54;100.00;101593.56;5055943;28;20075;-73
2023/12/20 04:38:25;;;;;;;17.63;3.55;;;;;;;6.49;100.00;101576.28;5055485;28;20107;-73
2023/12/20 04:40:50;;;;;;;14.50;3.15;;;;;;;6.50;100.00;101572.81;5055612;28;20307;-73
2023/12/20 04:43:15;;;;;;;16.17;3.08;;;;;;;6.48;100.00;101570.25;5055748;28;20036;-73
2023/12/20 04:45:41;;;;;;;17.85;2.67;;;;;;;6.48;100.00;101570.25;5055876;28;20071;-73
2023/12/20 04:48:06;;;;;;;10.52;2.40;;;;;;;6.47;100.00;101559.84;5055236;28;20057;-73
2023/12/20 04:50:32;;;;;;;14.20;3.15;;;;;;;6.44;100.00;101555.53;5055719;28;20033;-73
2023/12/20 04:52:57;;;;;;;17.35;2.45;;;;;;;6.47;100.00;101558.09;5055230;28;20060;-73
2023/12/20 04:55:22;;;;;;;13.75;2.80;;;;;;;6.46;100.00;101545.13;5055609;28;20033;-73
2023/12/20 04:57:48;;;;;;;12.70;2.17;;;;;;;6.50;100.00;101562.41;5055419;28;20090;-73
2023/12/20 05:00:15;;;;;;;11.65;2.78;;;;;;;6.51;100.00;101551.09;5053763;28;20071;-73
2023/12/20 05:02:41;;;;;;;17.95;3.15;;;;;;;6.51;100.00;101551.09;5055323;28;20040;-73
2023/12/20 05:05:07;;;;;;;20.02;3.17;;;;;;;6.51;100.00;101552.00;5055193;28;20041;-73
2023/12/20 05:07:32;;;;;;;14.57;3.17;;;;;;;6.47;100.00;101552.88;5055179;28;20064;-73
2023/12/20 05:09:58;;;;;;;14.05;2.75;;;;;;;6.45;100.00;101572.00;5055249;28;20041;-73
2023/12/20 05:12:23;;;;;;;19.50;2.92;;;;;;;6.45;100.00;101567.66;5055409;28;20056;-73
2023/12/20 05:14:49;;;;;;;18.33;2.90;;;;;;;6.46;100.00;101573.75;5054988;28;20047;-73
2023/12/20 05:17:14;;;;;;;15.30;2.88;;;;;;;6.46;100.00;101573.75;5055167;28;20033;-73
2023/12/20 05:19:40;;;;;;;10.60;2.25;;;;;;;6.45;100.00;101569.41;5055397;28;20083;-73
2023/12/20 05:22:05;;;;;;;21.40;2.70;;;;;;;6.46;100.00;101571.16;5054795;28;20438;-73
2023/12/20 05:24:30;;;;;;;17.52;2.78;;;;;;;6.43;100.00;101571.19;5054836;28;20045;-73
2023/12/20 05:26:56;;;;;;;21.27;3.05;;;;;;;6.41;100.00;101567.72;5054554;28;20320;-73
2023/12/20 05:29:21;;;;;;;17.50;2.92;;;;;;;6.43;100.00;101574.63;5054633;28;20328;-73
2023/12/20 05:31:46;;;;;;;23.15;2.72;;;;;;;6.40;100.00;101568.59;5054644;28;20040;-73
2023/12/20 05:34:12;;;;;;;21.90;3.35;;;;;;;6.41;100.00;101562.53;5053624;28;20249;-73
2023/12/20 05:36:38;;;;;;;26.10;3.58;;;;;;;6.40;100.00;101555.59;5054528;28;20261;-73
2023/12/20 05:39:04;;;;;;;16.85;3.00;;;;;;;6.44;100.00;101562.47;5054465;28;20035;-73
2023/12/20 05:41:30;;;;;;;21.00;3.95;;;;;;;6.45;100.00;101552.06;5054657;28;20033;-73
2023/12/20 05:43:57;;;;;;;15.57;2.90;;;;;;;6.49;100.00;101560.69;5054633;28;20344;-73
2023/12/20 05:46:23;;;;;;;24.65;3.13;;;;;;;6.52;100.00;101552.84;5054398;28;20028;-73
2023/12/20 05:48:48;;;;;;;15.27;3.20;;;;;;;6.53;100.00;101560.63;5054966;28;20040;-73
2023/12/20 05:51:14;;;;;;;17.65;3.42;;;;;;;6.55;100.00;101555.41;5054225;28;20362;-73
2023/12/20 05:53:39;;;;;;;17.35;2.95;;;;;;;6.53;100.00;101551.94;5054628;28;20355;-73
2023/12/20 05:56:05;;;;;;;17.42;2.75;;;;;;;6.51;100.00;101556.31;5054196;28;20037;-73
2023/12/20 05:58:30;;;;;;;21.52;3.45;;;;;;;6.54;100.00;101558.88;5054008;28;20049;-73
2023/12/20 06:00:55;;;;;;;16.42;2.35;;;;;;;6.53;100.00;101558.03;5054043;28;20060;-73
2023/12/20 06:03:21;;;;;;;19.10;3.08;;;;;;;6.57;100.00;101564.06;5054335;28;20033;-73
2023/12/20 06:05:46;;;;;;;15.38;3.25;;;;;;;6.61;100.00;101568.34;5054789;28;20301;-73
2023/12/20 06:08:12;;;;;;;15.88;2.95;;;;;;;6.61;100.00;101575.31;5053966;28;20032;-73
2023/12/20 06:10:37;;;;;;;25.08;4.05;;;;;;;6.62;100.00;101567.47;5054102;28;20158;-73
2023/12/20 06:13:04;;;;;;;17.30;2.38;;;;;;;6.66;100.00;101570.91;5054058;28;20079;-73
2023/12/20 06:15:29;;;;;;;14.02;2.58;;;;;;;6.67;100.00;101563.03;5054338;28;20538;-73
2023/12/20 06:17:54;;;;;;;19.48;2.88;;;;;;;6.63;100.00;101566.56;5052779;28;20040;-73
2023/12/20 06:20:20;;;;;;;10.07;2.40;;;;;;;6.63;100.00;101557.91;5053573;28;20025;-73
2023/12/20 06:22:45;;;;;;;9.55;2.53;;;;;;;6.65;100.00;101553.56;5053662;28;20072;-73
2023/12/20 06:25:11;;;;;;;15.90;2.72;;;;;;;6.67;100.00;101546.56;5052713;28;20041;-73
2023/12/20 06:27:36;;;;;;;20.50;3.50;;;;;;;6.67;100.00;101560.44;5053146;28;20592;-73
2023/12/20 06:30:01;;;;;;;11.77;2.80;;;;;;;6.67;100.00;101551.78;5052871;28;20044;-73
2023/12/20 06:32:28;;;;;;;17.95;2.97;;;;;;;6.67;100.00;101544.81;5052853;28;20044;-73
2023/12/20 06:34:54;;;;;;;15.60;2.45;;;;;;;6.68;100.00;101559.56;5053104;28;20037;-73
2023/12/20 06:37:19;;;;;;;13.18;2.65;;;;;;;6.72;100.00;101563.84;5053506;28;20412;-73
2023/12/20 06:39:45;;;;;;;19.95;3.05;;;;;;;6.73;100.00;101544.75;5053771;28;20040;-73
2023/12/20 06:42:10;;;;;;;22.58;2.95;;;;;;;6.73;100.00;101554.28;5053490;28;20120;-73
2023/12/20 06:44:36;;;;;;;23.35;2.88;;;;;;;6.72;100.00;101555.19;5054552;28;20036;-73
2023/12/20 06:47:02;;;;;;;16.75;3.88;;;;;;;6.72;100.00;101553.44;5076867;28;20051;-73
2023/12/20 06:49:27;;;;;;;16.15;2.90;;;;;;;6.73;100.00;101559.50;5078055;28;20578;-73
2023/12/20 06:51:53;;;;;;;16.92;2.72;;;;;;;6.72;100.00;101543.03;5077944;28;20536;-73
2023/12/20 06:54:18;;;;;;;17.92;2.85;;;;;;;6.73;100.00;101546.47;5077786;28;20024;-73
2023/12/20 06:56:43;;;;;;;17.85;3.42;;;;;;;6.73;100.00;101547.38;5077701;28;20060;-73
2023/12/20 06:59:09;;;;;;;19.42;3.13;;;;;;;6.75;100.00;101533.44;5077183;28;20170;-73
2023/12/20 07:01:34;;;;;;;18.02;2.78;;;;;;;6.75;100.00;101543.88;5077479;28;20219;-73
2023/12/20 07:03:59;;;;;;;20.30;3.65;;;;;;;6.70;100.00;101534.38;5077240;28;20036;-73
2023/12/20 07:06:25;;;;;;;16.48;3.03;;;;;;;6.70;100.00;101525.72;5077802;28;20036;-73
2023/12/20 07:08:51;;;;;;;22.38;3.03;;;;;;;6.65;100.00;101533.56;5077296;28;20112;-73
2023/12/20 07:11:17;;;;;;;18.92;3.78;;;;;;;6.67;100.00;101530.97;5077543;28;20255;-73
2023/12/20 07:13:42;;;;;;;19.45;3.67;;;;;;;6.61;100.00;101534.50;5077376;28;20107;-73
2023/12/20 07:16:07;;;;;;;22.25;3.55;;;;;;;6.61;100.00;101529.31;5074613;28;20086;-73
2023/12/20 07:18:33;;;;;;;26.95;3.40;;;;;;;6.58;100.00;101529.34;5077039;28;20407;-73
2023/12/20 07:20:58;;;;;;;15.07;2.40;;;;;;;6.59;100.00;101531.06;5076143;28;20379;-73
2023/12/20 07:23:25;;;;;;;19.65;2.72;;;;;;;6.56;100.00;101522.44;5075592;28;20024;-73
2023/12/20 07:25:51;;;;;;;12.60;3.22;;;;;;;6.55;100.00;101526.78;5076340;28;20264;-73
2023/12/20 07:28:16;;;;;;;18.48;2.97;;;;;;;6.55;100.00;101519.00;5076429;28;20036;-73
2023/12/20 07:30:41;;;;;;;20.02;3.00;;;;;;;6.56;100.00;101523.28;5076177;28;20043;-73
2023/12/20 07:33:08;;;;;;;12.98;2.10;;;;;;;6.59;100.00;101525.00;5062863;28;20025;-73
2023/12/20 07:35:34;;;;;;;22.02;2.80;;;;;;;6.58;100.00;101523.28;5055626;28;20248;-73
2023/12/20 07:37:59;;;;;;;20.05;3.58;;;;;;;6.56;100.00;101520.69;5055157;28;20021;-73
2023/12/20 07:40:25;;;;;;;12.02;2.85;;;;;;;6.60;100.00;101524.97;5055402;28;20029;-73
2023/12/20 07:42:50;;;;;;;13.55;3.15;;;;;;;6.56;100.00;101527.66;5055366;28;20095;-73
2023/12/20 07:45:15;;;;;;;19.67;2.50;;;;;;;6.59;100.00;101536.28;5056889;28;20084;-73
2023/12/20 07:47:41;;;;;;;16.83;3.13;;;;;;;6.56;100.00;101527.66;5056854;28;20344;-73
2023/12/20 07:50:06;;;;;;;23.88;2.92;;;;;;;6.58;100.00;101550.16;5056402;28;20059;-73
2023/12/20 07:52:32;;;;;;;18.55;3.08;;;;;;;6.60;100.00;101550.13;5056331;28;20031;-73
2023/12/20 07:54:57;;;;;;;18.05;4.28;;;;;;;6.60;100.00;101553.59;5056466;28;20163;-73
2023/12/20 07:57:23;;;;;;;10.32;2.55;;;;;;;6.64;100.00;101547.50;5071906;28;20093;-73
2023/12/20 07:59:49;;;;;;;18.80;2.85;;;;;;;6.63;100.00;101552.72;5076735;28;20122;-73
2023/12/20 08:02:14;;;;;;;24.00;3.55;;;;;;;6.64;100.00;101554.41;5076464;28;20323;-73
2023/12/20 08:04:40;;;;;;;20.88;3.95;;;;;;;6.67;100.00;101563.03;5076554;28;20029;-73
2023/12/20 08:07:06;;;;;;;26.42;4.75;;;;;;;6.67;100.00;101565.66;5075119;28;20323;-73
2023/12/20 08:09:33;;;;;;;24.67;2.88;;;;;;;6.70;100.00;101565.63;5076183;28;20046;-73
2023/12/20 08:11:59;;;;;;;15.25;3.42;;;;;;;6.73;100.00;101568.19;5076184;28;20028;-73
2023/12/20 08:14:25;;;;;;;16.67;3.20;;;;;;;6.77;100.00;101549.91;5076481;28;20036;-73
2023/12/20 08:16:50;;;;;;;13.85;3.05;;;;;;;6.79;100.00;101564.66;5075797;28;20029;-73
2023/12/20 08:19:16;;;;;;;18.77;2.45;;;;;;;6.81;100.00;101552.47;5076098;28;20135;-73
2023/12/20 08:21:41;;;;;;;14.15;2.75;;;;;;;6.83;100.00;101540.28;5076377;28;20029;-73
2023/12/20 08:24:07;;;;;;;12.65;2.25;;;;;;;6.83;100.00;101532.47;5075616;28;20040;-73
2023/12/20 08:26:33;;;;;;;17.42;3.45;;;;;;;6.85;100.00;101538.50;5075244;28;20359;-73
2023/12/20 08:28:58;;;;;;;17.42;2.53;;;;;;;6.85;100.00;101530.69;5075409;28;20078;-73
2023/12/20 08:31:24;;;;;;;11.57;3.30;;;;;;;6.89;100.00;101532.41;5074974;28;20044;-73
2023/12/20 08:33:49;;;;;;;16.23;3.10;;;;;;;6.91;100.00;101532.34;5079096;28;20036;-73
2023/12/20 08:36:17;;;;;;;20.73;2.75;;;;;;;6.90;100.00;101539.31;5070589;28;20120;-73
2023/12/20 08:38:42;;;;;;;18.80;2.97;;;;;;;6.92;100.00;101555.78;5075137;28;20039;-73
2023/12/20 08:41:08;;;;;;;19.75;3.17;;;;;;;6.95;100.00;101561.81;5071789;28;20017;-73
2023/12/20 08:43:36;;;;;;;17.88;2.88;;;;;;;6.95;100.00;101567.91;5074367;28;20043;-73
2023/12/20 08:46:02;;;;;;;28.73;3.45;;;;;;;6.98;100.00;101575.66;5075244;28;20028;-73
2023/12/20 08:48:28;;;;;;;18.80;3.10;;;;;;;7.00;100.00;101580.84;5074862;28;20104;-73
2023/12/20 08:50:53;;;;;;;11.40;2.83;;;;;;;7.01;100.00;101580.84;5072104;28;20048;-73
2023/12/20 08:53:19;;;;;;;17.52;2.58;;;;;;;7.04;100.00;101575.59;5074989;28;20032;-73
2023/12/20 08:55:44;;;;;;;24.67;2.83;;;;;;;7.06;100.00;101566.00;5075109;28;20036;-73
2023/12/20 08:58:10;;;;;;;17.35;2.90;;;;;;;7.07;100.00;101566.84;5059746;28;20367;-73
2023/12/20 09:00:35;;;;;;;7.97;2.38;;;;;;;7.09;100.00;101565.09;5052682;28;20059;-73
2023/12/20 09:03:02;;;;;;;15.23;2.42;;;;;;;7.13;100.00;101558.09;5056123;28;20035;-73
2023/12/20 09:05:27;;;;;;;16.02;3.05;;;;;;;7.14;100.00;101563.28;5053472;28;20041;-73
2023/12/20 09:07:53;;;;;;;11.82;2.63;;;;;;;7.16;100.00;101558.91;5056027;28;20024;-73
2023/12/20 09:10:22;;;;;;;21.40;3.88;;;;;;;7.17;100.00;101557.16;5052448;28;20024;-73
2023/12/20 09:12:47;;;;;;;;;;;;;;;7.20;100.00;101546.69;5053535;28;20257;-73
2023/12/20 09:15:16;;;;;;;13.93;2.80;;;;;;;7.19;100.00;101545.00;5050589;28;20266;-73
2023/12/20 09:17:41;;;;;;;20.58;2.38;;;;;;;7.20;100.00;101536.28;5052114;28;20064;-73
2023/12/20 09:20:08;;;;;;;17.73;2.97;;;;;;;7.21;100.00;101548.44;5053979;28;20024;-73
2023/12/20 09:22:34;;;;;;;16.67;2.72;;;;;;;7.25;100.00;101542.28;5053177;28;20036;-73
2023/12/20 09:25:00;;;;;;;16.05;3.08;;;;;;;7.27;100.00;101538.75;5053128;28;20064;-73
2023/12/20 09:27:25;;;;;;;19.02;2.92;;;;;;;7.28;100.00;101547.44;5054965;28;20090;-73
2023/12/20 09:29:50;;;;;;;24.98;3.08;;;;;;;7.28;100.00;101539.63;5052626;28;20028;-73
2023/12/20 09:32:16;;;;;;;12.55;2.20;;;;;;;7.29;100.00;101550.03;5052781;28;20032;-73
2023/12/20 09:34:41;;;;;;;19.60;2.40;;;;;;;7.31;100.00;101547.38;5050208;28;20524;-73
2023/12/20 09:37:07;;;;;;;35.40;4.70;;;;;;;7.34;100.00;101552.56;5059140;28;20036;-73
2023/12/20 09:39:33;;;;;;;14.90;2.70;;;;;;;7.36;100.00;101552.53;5063832;28;20096;-73
2023/12/20 09:42:03;;;;;;;18.33;2.28;;;;;;;7.35;100.00;101551.69;5054528;28;20040;-73
2023/12/20 09:44:30;;;;;;;15.57;2.88;;;;;;;7.37;100.00;101539.50;5051108;28;20108;-73
2023/12/20 09:46:56;;;;;;;12.63;2.30;;;;;;;7.39;100.00;101547.28;5052316;28;20029;-73
2023/12/20 09:49:22;;;;;;;22.33;3.47;;;;;;;7.41;100.00;101559.41;5052973;28;20041;-73
2023/12/20 09:51:50;;;;;;;14.23;2.75;;;;;;;7.43;100.00;101573.25;5052387;28;20273;-73
2023/12/20 09:54:21;;;;;;;22.27;2.83;;;;;;;7.45;100.00;101562.81;5052533;28;20253;-73
2023/12/20 09:56:46;;;;;;;20.50;3.55;;;;;;;7.47;100.00;101556.69;5052436;28;20032;-73
2023/12/20 09:59:12;;;;;;;21.95;3.22;;;;;;;7.48;100.00;101558.41;5051478;28;20075;-73
2023/12/20 10:01:42;;;;;;;21.50;3.05;;;;;;;7.51;100.00;101560.09;5055528;28;20272;-73
2023/12/20 10:04:10;;;;;;;22.15;3.17;;;;;;;7.49;100.00;101560.16;5054638;28;20291;-73
2023/12/20 10:06:36;;;;;;;12.90;2.25;;;;;;;7.50;100.00;101545.34;5056073;28;20029;-73
2023/12/20 10:09:02;;;;;;;14.65;3.22;;;;;;;7.51;100.00;101554.88;5054216;28;20107;-73
2023/12/20 10:11:28;;;;;;;23.40;3.85;;;;;;;7.51;100.00;101562.69;5053875;28;20033;-73
2023/12/20 10:14:00;;;;;;;16.88;2.90;;;;;;;7.54;100.00;101554.84;5054861;28;20195;-73
2023/12/20 10:16:26;;;;;;;23.30;3.95;;;;;;;7.57;100.00;101551.34;5055493;28;20056;-73
2023/12/20 10:18:56;;;;;;;22.17;4.05;;;;;;;7.59;100.00;101549.56;5056301;28;20267;-73
2023/12/20 10:21:26;;;;;;;9.10;2.55;;;;;;;7.62;100.00;101552.09;5052806;28;20044;-73
2023/12/20 10:23:52;;;;;;;14.95;2.83;;;;;;;7.62;100.00;101554.69;5053293;28;20032;-73
2023/12/20 10:26:25;;;;;;;19.58;2.70;;;;;;;7.65;100.00;101544.22;5050539;28;20152;-73
2023/12/20 10:28:55;;;;;;;16.35;2.67;;;;;;;7.68;100.00;101547.66;5051981;28;20032;-73
2023/12/20 10:31:30;;;;;;;14.20;2.92;;;;;;;7.69;100.00;101545.91;5068306;28;20036;-73
2023/12/20 10:33:57;;;;;;;21.63;3.10;;;;;;;7.70;100.00;101550.22;5068789;28;20109;-73
2023/12/20 10:36:26;;;;;;;10.32;2.67;;;;;;;7.72;100.00;101550.22;5067434;28;20029;-73
2023/12/20 10:38:53;;;;;;;20.38;3.30;;;;;;;7.74;100.00;101549.28;5068803;28;20067;-73
2023/12/20 10:41:27;;;;;;;10.40;2.05;;;;;;;7.75;100.00;101557.97;5067246;28;20109;-73
2023/12/20 10:43:55;;;;;;;22.25;2.97;;;;;;;7.75;100.00;101537.97;5067410;28;20070;-73
2023/12/20 10:46:20;;;;;;;15.80;3.40;;;;;;;7.78;100.00;101532.69;5068000;28;20096;-73
2023/12/20 10:48:47;;;;;;;15.10;2.83;;;;;;;7.78;100.00;101529.22;5065543;28;20048;-73
2023/12/20 10:51:17;;;;;;;18.60;2.75;;;;;;;7.78;100.00;101524.88;5068165;28;20147;-73
2023/12/20 10:53:43;;;;;;;14.43;3.00;;;;;;;7.80;100.00;101525.69;5070110;28;20314;-73
2023/12/20 10:56:15;;;;;;;14.63;2.97;;;;;;;7.83;100.00;101528.25;5060177;28;20059;-73
2023/12/20 10:58:43;;;;;;;19.23;2.88;;;;;;;7.86;100.00;101516.94;5050925;28;20232;-73
2023/12/20 11:01:09;;;;;;;14.80;2.70;;;;;;;7.86;100.00;101520.38;5052493;28;20028;-73
2023/12/20 11:03:38;;;;;;;17.63;2.22;;;;;;;7.90;100.00;101526.41;5052559;28;20064;-73
2023/12/20 11:06:16;;;;;;;10.95;2.35;;;;;;;7.93;100.00;101522.88;5053855;28;21129;-73
2023/12/20 11:08:53;;;;;;;16.40;3.10;;;;;;;7.95;100.00;101524.56;5061605;28;20316;-73
2023/12/20 11:11:48;;;;;;;13.48;3.05;;;;;;;7.95;100.00;101510.66;5068301;28;20024;-73